createdAt,value
2023-03-17T00:01:41.600Z,36.0
2023-03-17T00:06:41.753Z,34.5
2023-03-17T00:11:41.603Z,38.8
2023-03-17T00:16:41.577Z,38.6
2023-03-17T00:21:41.685Z,39.1
2023-03-17T00:26:41.596Z,40.5
2023-03-17T00:31:41.648Z,37.8
2023-03-17T00:36:41.662Z,40.2
2023-03-17T00:41:41.685Z,38.0
2023-03-17T00:46:43.098Z,39.2
2023-03-17T00:51:42.326Z,39.4
2023-03-17T00:56:42.192Z,46.2
2023-03-17T01:01:42.329Z,47.6
2023-03-17T01:06:41.525Z,45.2
2023-03-17T01:11:41.511Z,45.0
2023-03-17T01:16:41.522Z,45.6
2023-03-17T01:21:42.143Z,45.2
2023-03-17T01:26:41.456Z,46.3
2023-03-17T01:31:41.570Z,44.8
2023-03-17T01:36:41.465Z,44.7
2023-03-17T01:41:41.460Z,43.2
2023-03-17T01:46:41.531Z,42.8
2023-03-17T01:51:41.519Z,43.0
2023-03-17T01:56:42.105Z,45.1
2023-03-17T02:01:41.490Z,48.6
2023-03-17T02:06:54.992Z,44.3
2023-03-17T02:11:42.100Z,47.6
2023-03-17T02:16:42.514Z,46.8
2023-03-17T02:21:42.159Z,52.9
2023-03-17T02:26:42.423Z,59.1
2023-03-17T02:31:42.129Z,55.1
2023-03-17T02:36:42.165Z,52.6
2023-03-17T02:41:42.280Z,51.1
2023-03-17T02:46:42.184Z,48.0
2023-03-17T02:51:42.020Z,54.3
2023-03-17T02:56:42.056Z,134.4
2023-03-17T03:01:42.148Z,73.5
2023-03-17T03:06:42.050Z,70.9
2023-03-17T03:11:41.982Z,61.9
2023-03-17T03:16:42.095Z,60.0
2023-03-17T03:21:42.080Z,55.8
2023-03-17T03:26:42.030Z,56.0
2023-03-17T03:31:41.243Z,48.9
2023-03-17T03:36:41.296Z,43.0
2023-03-17T03:41:41.231Z,44.4
2023-03-17T03:46:41.274Z,41.8
2023-03-17T03:51:41.234Z,40.1
2023-03-17T03:56:41.953Z,37.1
2023-03-17T04:01:41.204Z,47.9
2023-03-17T04:06:41.123Z,44.5
2023-03-17T04:11:41.161Z,43.7
2023-03-17T04:16:43.405Z,41.6
2023-03-17T04:21:41.176Z,39.3
2023-03-17T04:31:41.336Z,38.4
2023-03-17T04:36:41.163Z,31.2
2023-03-17T04:41:41.104Z,28.5
2023-03-17T04:46:41.225Z,32.2
2023-03-17T04:51:41.133Z,35.4
2023-03-17T04:56:41.124Z,37.2
2023-03-17T05:01:41.826Z,39.2
2023-03-17T05:06:41.040Z,47.5
2023-03-17T05:11:41.028Z,37.8
2023-03-17T05:16:41.279Z,40.2
2023-03-17T05:21:41.041Z,41.4
2023-03-17T05:26:41.026Z,39.3
2023-03-17T05:31:41.242Z,38.6
2023-03-17T05:36:41.039Z,35.5
2023-03-17T05:41:40.937Z,37.5
2023-03-17T05:46:41.199Z,44.5
2023-03-17T05:51:40.947Z,39.9
2023-03-17T05:56:40.989Z,41.9
2023-03-17T06:01:40.995Z,40.7
2023-03-17T06:06:40.913Z,38.6
2023-03-17T06:11:41.130Z,33.4
2023-03-17T06:16:40.962Z,29.5
2023-03-17T06:21:40.954Z,24.8
2023-03-17T06:26:41.104Z,21.8
2023-03-17T06:31:41.062Z,21.0
2023-03-17T06:36:40.883Z,22.5
2023-03-17T06:41:41.037Z,23.6
2023-03-17T06:46:40.979Z,23.5
2023-03-17T06:51:40.836Z,26.6
2023-03-17T06:56:40.988Z,35.3
2023-03-17T07:01:41.001Z,28.7
2023-03-17T07:06:51.493Z,29.6
2023-03-17T07:11:44.960Z,25.5
2023-03-17T07:16:40.935Z,20.0
2023-03-17T07:21:40.831Z,21.1
2023-03-17T07:26:40.906Z,17.2
2023-03-17T07:31:41.459Z,16.4
2023-03-17T07:36:41.120Z,16.2
2023-03-17T07:41:40.864Z,18.6
2023-03-17T07:46:40.891Z,14.0
2023-03-17T07:51:41.173Z,13.1
2023-03-17T07:56:40.812Z,15.9
2023-03-17T08:01:40.923Z,21.4
2023-03-17T08:06:40.982Z,23.5
2023-03-17T08:11:40.908Z,20.6
2023-03-17T08:16:40.881Z,17.4
2023-03-17T08:21:40.789Z,9.8
2023-03-17T08:26:40.751Z,8.8
2023-03-17T08:31:40.897Z,6.8
2023-03-17T08:36:40.854Z,5.4
2023-03-17T08:41:40.654Z,4.7
2023-03-17T08:46:40.705Z,4.7
2023-03-17T08:51:41.110Z,5.3
2023-03-17T08:56:40.842Z,4.8
2023-03-17T09:01:40.752Z,5.7
2023-03-17T09:06:48.918Z,5.3
2023-03-17T09:11:40.687Z,5.5
2023-03-17T09:16:40.664Z,6.1
2023-03-17T09:21:40.893Z,6.3
2023-03-17T09:26:40.592Z,4.9
2023-03-17T09:31:40.730Z,4.7
2023-03-17T09:36:40.804Z,5.1
2023-03-17T09:41:40.610Z,4.8
2023-03-17T09:46:40.527Z,5.0
2023-03-17T09:51:40.798Z,5.0
2023-03-17T09:56:40.622Z,4.8
2023-03-17T10:01:40.671Z,4.9
2023-03-17T10:06:40.774Z,4.8
2023-03-17T10:11:40.549Z,5.1
2023-03-17T10:16:40.569Z,5.2
2023-03-17T10:21:40.803Z,5.1
2023-03-17T10:26:40.588Z,4.9
2023-03-17T10:31:40.702Z,5.7
2023-03-17T10:36:40.427Z,5.2
2023-03-17T10:41:40.538Z,5.1
2023-03-17T10:46:40.443Z,5.2
2023-03-17T10:51:40.686Z,7.5
2023-03-17T10:56:40.408Z,4.8
2023-03-17T11:01:40.432Z,4.3
2023-03-17T11:06:40.643Z,3.8
2023-03-17T11:11:40.505Z,4.2
2023-03-17T11:16:40.536Z,4.8
2023-03-17T11:21:40.586Z,3.4
2023-03-17T11:26:40.438Z,3.3
2023-03-17T11:31:40.649Z,3.6
2023-03-17T11:36:40.637Z,4.8
2023-03-17T11:41:40.430Z,4.4
2023-03-17T11:46:40.439Z,4.6
2023-03-17T11:51:40.769Z,4.0
2023-03-17T11:56:40.422Z,4.6
2023-03-17T12:01:40.505Z,4.1
2023-03-17T12:06:40.544Z,4.0
2023-03-17T12:11:40.390Z,3.6
2023-03-17T12:16:40.399Z,3.2
2023-03-17T12:21:40.527Z,3.8
2023-03-17T12:26:40.361Z,3.6
2023-03-17T12:31:40.261Z,3.4
2023-03-17T12:36:40.284Z,2.8
2023-03-17T12:41:40.561Z,3.3
2023-03-17T12:46:40.496Z,3.7
2023-03-17T12:51:40.251Z,3.6
2023-03-17T12:56:40.344Z,4.0
2023-03-17T13:01:40.545Z,4.4
2023-03-17T13:06:40.940Z,4.1
2023-03-17T13:11:40.282Z,4.2
2023-03-17T13:16:40.352Z,4.6
2023-03-17T13:21:40.284Z,4.3
2023-03-17T13:26:40.277Z,5.5
2023-03-17T13:31:40.731Z,4.9
2023-03-17T13:36:40.272Z,5.0
2023-03-17T13:41:40.320Z,4.8
2023-03-17T13:46:40.579Z,4.0
2023-03-17T13:51:43.945Z,4.3
2023-03-17T13:56:40.139Z,4.2
2023-03-17T14:01:43.130Z,5.6
2023-03-17T14:06:40.229Z,4.7
2023-03-17T14:11:41.766Z,4.1
2023-03-17T14:16:40.674Z,4.8
2023-03-17T14:21:40.196Z,4.6
2023-03-17T14:26:40.388Z,4.0
2023-03-17T14:31:41.218Z,4.1
2023-03-17T14:36:40.169Z,3.9
2023-03-17T14:41:40.264Z,4.7
2023-03-17T14:46:40.273Z,5.1
2023-03-17T14:51:40.133Z,4.9
2023-03-17T14:56:40.107Z,3.9
2023-03-17T15:01:40.441Z,4.6
2023-03-17T15:06:40.067Z,12.9
2023-03-17T15:11:40.188Z,7.4
2023-03-17T15:16:40.321Z,5.5
2023-03-17T15:21:40.078Z,4.4
2023-03-17T15:26:40.097Z,4.9
2023-03-17T15:31:40.620Z,6.4
2023-03-17T15:36:40.125Z,6.4
2023-03-17T15:41:40.028Z,6.5
2023-03-17T15:46:40.216Z,7.0
2023-03-17T15:51:40.092Z,7.0
2023-03-17T15:56:40.000Z,22.7
2023-03-17T16:01:40.278Z,9.6
2023-03-17T16:06:39.978Z,11.1
2023-03-17T16:11:40.546Z,9.0
2023-03-17T16:16:40.193Z,6.7
2023-03-17T16:26:39.993Z,10.3
2023-03-17T16:31:39.945Z,26.3
2023-03-17T16:36:40.460Z,27.7
2023-03-17T16:41:40.781Z,53.1
2023-03-17T16:46:40.726Z,109.5
2023-03-17T16:51:40.683Z,74.0
2023-03-17T16:56:40.835Z,58.1
2023-03-17T17:01:40.670Z,45.2
2023-03-17T17:06:40.505Z,74.5
2023-03-17T17:11:40.772Z,66.8
2023-03-17T17:16:40.805Z,56.7
2023-03-17T17:21:40.720Z,115.0
2023-03-17T17:26:40.530Z,66.2
2023-03-17T17:31:40.611Z,64.7
2023-03-17T17:36:40.556Z,43.2
2023-03-17T17:41:39.831Z,51.2
2023-03-17T17:46:39.851Z,31.5
2023-03-17T17:51:40.146Z,37.2
2023-03-17T17:56:39.970Z,16.5
2023-03-17T18:01:39.968Z,13.4
2023-03-17T18:06:39.740Z,14.2
2023-03-17T18:11:40.590Z,23.4
2023-03-17T18:16:40.644Z,184.6
2023-03-17T18:21:40.877Z,169.8
2023-03-17T18:26:39.673Z,70.8
2023-03-17T18:31:39.891Z,35.9
2023-03-17T18:36:40.539Z,29.2
2023-03-17T18:41:39.750Z,51.0
2023-03-17T18:46:39.660Z,25.0
2023-03-17T18:51:39.894Z,34.9
2023-03-17T18:56:39.904Z,30.4
2023-03-17T19:01:39.744Z,20.4
2023-03-17T19:06:40.407Z,21.7
2023-03-17T19:11:47.166Z,61.6
2023-03-17T19:16:40.387Z,50.5
2023-03-17T19:21:39.641Z,34.1
2023-03-17T19:26:39.702Z,20.0
2023-03-17T19:31:40.445Z,46.7
2023-03-17T19:36:39.723Z,34.8
2023-03-17T19:41:39.836Z,33.6
2023-03-17T19:46:41.783Z,19.8
2023-03-17T19:51:39.935Z,23.4
2023-03-17T19:56:39.879Z,35.4
2023-03-17T20:01:39.812Z,18.7
2023-03-17T20:06:39.890Z,17.8
2023-03-17T20:11:39.509Z,23.7
2023-03-17T20:16:41.434Z,33.7
2023-03-17T20:21:39.699Z,26.0
2023-03-17T20:26:39.568Z,18.7
2023-03-17T20:31:39.593Z,16.3
2023-03-17T20:36:39.621Z,17.6
2023-03-17T20:41:39.553Z,23.2
2023-03-17T20:46:39.697Z,20.4
2023-03-17T20:51:39.466Z,14.5
2023-03-17T20:56:39.541Z,14.0
2023-03-17T21:01:39.638Z,14.7
2023-03-17T21:06:39.450Z,20.1
2023-03-17T21:11:39.431Z,28.7
2023-03-17T21:16:39.417Z,25.3
2023-03-17T21:21:39.499Z,17.8
2023-03-17T21:26:40.101Z,22.6
2023-03-17T21:31:40.108Z,72.6
2023-03-17T21:36:39.391Z,55.7
2023-03-17T21:41:39.365Z,29.4
2023-03-17T21:46:39.579Z,28.8
2023-03-17T21:51:39.456Z,23.3
2023-03-17T21:56:39.358Z,18.6
2023-03-17T22:01:39.761Z,13.4
2023-03-17T22:06:39.392Z,23.4
2023-03-17T22:11:39.408Z,24.7
2023-03-17T22:16:39.520Z,16.3
2023-03-17T22:21:39.348Z,17.3
2023-03-17T22:26:39.314Z,17.1
2023-03-17T22:31:39.531Z,18.8
2023-03-17T22:36:39.345Z,15.2
2023-03-17T22:41:39.319Z,27.3
2023-03-17T22:46:39.422Z,16.5
2023-03-17T22:51:39.363Z,14.2
2023-03-17T22:56:39.307Z,11.4
2023-03-17T23:01:39.246Z,11.4
2023-03-17T23:06:39.247Z,12.8
2023-03-17T23:11:39.264Z,15.6
2023-03-17T23:16:39.449Z,14.7
2023-03-17T23:21:39.249Z,14.0
2023-03-17T23:26:39.225Z,13.4
2023-03-17T23:31:39.325Z,12.6
2023-03-17T23:36:39.436Z,12.9
2023-03-17T23:41:39.337Z,15.5
2023-03-17T23:46:39.260Z,12.1
2023-03-17T23:51:39.393Z,12.6
2023-03-17T23:56:39.176Z,13.4
